sensor_id;sensor_type;location;lat;lon;timestamp;P1;durP1;ratioP1;P2;durP2;ratioP2
57615;SDS011;43816;52.054;-9.494;2022-09-13T00:00:08;0.70;;;0.70;;
57615;SDS011;43816;52.054;-9.494;2022-09-13T00:00:19;0.70;;;0.70;;
57615;SDS011;43816;52.054;-9.494;2022-09-13T00:00:29;0.80;;;0.80;;
57615;SDS011;43816;52.054;-9.494;2022-09-13T00:00:39;0.75;;;0.75;;
57615;SDS011;43816;52.054;-9.494;2022-09-13T00:00:50;0.70;;;0.70;;
57615;SDS011;43816;52.054;-9.494;2022-09-13T00:01:02;0.70;;;0.70;;
57615;SDS011;43816;52.054;-9.494;2022-09-13T00:01:13;0.70;;;0.70;;
57615;SDS011;43816;52.054;-9.494;2022-09-13T00:01:23;0.93;;;0.70;;
57615;SDS011;43816;52.054;-9.494;2022-09-13T00:01:33;1.13;;;0.70;;
57615;SDS011;43816;52.054;-9.494;2022-09-13T00:01:44;1.30;;;0.73;;
57615;SDS011;43816;52.054;-9.494;2022-09-13T00:01:54;0.80;;;0.70;;
57615;SDS011;43816;52.054;-9.494;2022-09-13T00:02:04;0.68;;;0.65;;
57615;SDS011;43816;52.054;-9.494;2022-09-13T00:02:14;0.80;;;0.80;;
57615;SDS011;43816;52.054;-9.494;2022-09-13T00:02:25;1.00;;;0.87;;
57615;SDS011;43816;52.054;-9.494;2022-09-13T00:02:35;1.07;;;0.97;;
57615;SDS011;43816;52.054;-9.494;2022-09-13T00:02:45;1.00;;;0.90;;
57615;SDS011;43816;52.054;-9.494;2022-09-13T00:02:55;0.90;;;0.90;;
57615;SDS011;43816;52.054;-9.494;2022-09-13T00:03:06;0.70;;;0.70;;
57615;SDS011;43816;52.054;-9.494;2022-09-13T00:03:18;0.60;;;0.60;;
57615;SDS011;43816;52.054;-9.494;2022-09-13T00:03:29;0.63;;;0.60;;
57615;SDS011;43816;52.054;-9.494;2022-09-13T00:03:40;0.90;;;0.90;;
57615;SDS011;43816;52.054;-9.494;2022-09-13T00:03:50;0.80;;;0.80;;
57615;SDS011;43816;52.054;-9.494;2022-09-13T00:04:00;0.83;;;0.83;;
57615;SDS011;43816;52.054;-9.494;2022-09-13T00:04:11;0.70;;;0.70;;
57615;SDS011;43816;52.054;-9.494;2022-09-13T00:04:21;0.80;;;0.80;;
57615;SDS011;43816;52.054;-9.494;2022-09-13T00:04:31;0.70;;;0.70;;
57615;SDS011;43816;52.054;-9.494;2022-09-13T00:04:42;0.70;;;0.70;;
57615;SDS011;43816;52.054;-9.494;2022-09-13T00:04:52;0.70;;;0.70;;
57615;SDS011;43816;52.054;-9.494;2022-09-13T00:05:02;0.70;;;0.70;;
57615;SDS011;43816;52.054;-9.494;2022-09-13T00:05:16;0.70;;;0.70;;
57615;SDS011;43816;52.054;-9.494;2022-09-13T00:05:26;0.85;;;0.70;;
57615;SDS011;43816;52.054;-9.494;2022-09-13T00:05:37;0.80;;;0.70;;
57615;SDS011;43816;52.054;-9.494;2022-09-13T00:05:48;0.80;;;0.77;;
57615;SDS011;43816;52.054;-9.494;2022-09-13T00:06:05;0.80;;;0.80;;
57615;SDS011;43816;52.054;-9.494;2022-09-13T00:06:23;0.80;;;0.80;;
57615;SDS011;43816;52.054;-9.494;2022-09-13T00:06:33;0.80;;;0.80;;
57615;SDS011;43816;52.054;-9.494;2022-09-13T00:06:43;0.80;;;0.80;;
57615;SDS011;43816;52.054;-9.494;2022-09-13T00:06:54;1.00;;;0.80;;
57615;SDS011;43816;52.054;-9.494;2022-09-13T00:07:04;1.40;;;0.80;;
57615;SDS011;43816;52.054;-9.494;2022-09-13T00:07:14;1.50;;;0.80;;
57615;SDS011;43816;52.054;-9.494;2022-09-13T00:07:24;0.85;;;0.70;;
57615;SDS011;43816;52.054;-9.494;2022-09-13T00:07:35;0.70;;;0.70;;
57615;SDS011;43816;52.054;-9.494;2022-09-13T00:07:45;0.90;;;0.80;;
57615;SDS011;43816;52.054;-9.494;2022-09-13T00:07:55;1.00;;;0.80;;
57615;SDS011;43816;52.054;-9.494;2022-09-13T00:08:06;0.90;;;0.80;;
57615;SDS011;43816;52.054;-9.494;2022-09-13T00:08:17;0.90;;;0.80;;
57615;SDS011;43816;52.054;-9.494;2022-09-13T00:08:28;1.00;;;0.88;;
57615;SDS011;43816;52.054;-9.494;2022-09-13T00:08:38;1.10;;;0.90;;
57615;SDS011;43816;52.054;-9.494;2022-09-13T00:08:49;1.00;;;0.90;;
57615;SDS011;43816;52.054;-9.494;2022-09-13T00:09:00;1.00;;;0.90;;
57615;SDS011;43816;52.054;-9.494;2022-09-13T00:09:10;0.80;;;0.80;;
57615;SDS011;43816;52.054;-9.494;2022-09-13T00:09:21;0.80;;;0.80;;
57615;SDS011;43816;52.054;-9.494;2022-09-13T00:09:31;0.80;;;0.80;;
57615;SDS011;43816;52.054;-9.494;2022-09-13T00:09:41;0.75;;;0.75;;
57615;SDS011;43816;52.054;-9.494;2022-09-13T00:09:52;0.70;;;0.70;;
57615;SDS011;43816;52.054;-9.494;2022-09-13T00:10:02;0.83;;;0.80;;
57615;SDS011;43816;52.054;-9.494;2022-09-13T00:10:13;0.90;;;0.88;;
57615;SDS011;43816;52.054;-9.494;2022-09-13T00:10:23;0.98;;;0.90;;
57615;SDS011;43816;52.054;-9.494;2022-09-13T00:10:35;0.80;;;0.80;;
57615;SDS011;43816;52.054;-9.494;2022-09-13T00:10:47;0.80;;;0.80;;
57615;SDS011;43816;52.054;-9.494;2022-09-13T00:10:58;0.80;;;0.80;;
57615;SDS011;43816;52.054;-9.494;2022-09-13T00:11:13;1.05;;;0.88;;
57615;SDS011;43816;52.054;-9.494;2022-09-13T00:11:29;1.02;;;0.90;;
57615;SDS011;43816;52.054;-9.494;2022-09-13T00:11:40;0.90;;;0.90;;
57615;SDS011;43816;52.054;-9.494;2022-09-13T00:11:50;0.90;;;0.90;;
57615;SDS011;43816;52.054;-9.494;2022-09-13T00:12:01;0.90;;;0.90;;
57615;SDS011;43816;52.054;-9.494;2022-09-13T00:12:11;0.80;;;0.80;;
57615;SDS011;43816;52.054;-9.494;2022-09-13T00:12:22;0.80;;;0.80;;
57615;SDS011;43816;52.054;-9.494;2022-09-13T00:12:32;0.80;;;0.80;;
57615;SDS011;43816;52.054;-9.494;2022-09-13T00:12:42;1.00;;;1.00;;
57615;SDS011;43816;52.054;-9.494;2022-09-13T00:12:52;1.13;;;1.03;;
57615;SDS011;43816;52.054;-9.494;2022-09-13T00:13:04;1.13;;;1.02;;
57615;SDS011;43816;52.054;-9.494;2022-09-13T00:13:15;1.00;;;0.88;;
57615;SDS011;43816;52.054;-9.494;2022-09-13T00:13:26;0.80;;;0.80;;
57615;SDS011;43816;52.054;-9.494;2022-09-13T00:13:37;0.80;;;0.80;;
57615;SDS011;43816;52.054;-9.494;2022-09-13T00:13:47;0.80;;;0.80;;
57615;SDS011;43816;52.054;-9.494;2022-09-13T00:13:58;0.80;;;0.80;;
57615;SDS011;43816;52.054;-9.494;2022-09-13T00:14:08;0.80;;;0.80;;
57615;SDS011;43816;52.054;-9.494;2022-09-13T00:14:18;0.80;;;0.80;;
57615;SDS011;43816;52.054;-9.494;2022-09-13T00:14:29;0.80;;;0.80;;
57615;SDS011;43816;52.054;-9.494;2022-09-13T00:14:39;1.30;;;0.80;;
57615;SDS011;43816;52.054;-9.494;2022-09-13T00:14:49;1.20;;;0.90;;
57615;SDS011;43816;52.054;-9.494;2022-09-13T00:15:00;1.05;;;0.90;;
57615;SDS011;43816;52.054;-9.494;2022-09-13T00:15:10;0.80;;;0.80;;
57615;SDS011;43816;52.054;-9.494;2022-09-13T00:15:20;0.70;;;0.70;;
57615;SDS011;43816;52.054;-9.494;2022-09-13T00:15:31;0.63;;;0.63;;
57615;SDS011;43816;52.054;-9.494;2022-09-13T00:15:48;0.77;;;0.77;;
57615;SDS011;43816;52.054;-9.494;2022-09-13T00:15:59;0.80;;;0.80;;
57615;SDS011;43816;52.054;-9.494;2022-09-13T00:16:13;0.90;;;0.80;;
57615;SDS011;43816;52.054;-9.494;2022-09-13T00:16:26;0.80;;;0.80;;
57615;SDS011;43816;52.054;-9.494;2022-09-13T00:16:37;0.85;;;0.80;;
57615;SDS011;43816;52.054;-9.494;2022-09-13T00:16:48;0.90;;;0.80;;
57615;SDS011;43816;52.054;-9.494;2022-09-13T00:16:58;0.80;;;0.80;;
57615;SDS011;43816;52.054;-9.494;2022-09-13T00:17:08;0.88;;;0.88;;
57615;SDS011;43816;52.054;-9.494;2022-09-13T00:17:18;0.90;;;0.80;;
57615;SDS011;43816;52.054;-9.494;2022-09-13T00:17:29;0.90;;;0.80;;
57615;SDS011;43816;52.054;-9.494;2022-09-13T00:17:39;0.87;;;0.73;;
57615;SDS011;43816;52.054;-9.494;2022-09-13T00:17:49;1.10;;;0.82;;
57615;SDS011;43816;52.054;-9.494;2022-09-13T00:18:00;1.10;;;0.90;;
57615;SDS011;43816;52.054;-9.494;2022-09-13T00:18:10;0.95;;;0.90;;
57615;SDS011;43816;52.054;-9.494;2022-09-13T00:18:21;0.90;;;0.90;;
57615;SDS011;43816;52.054;-9.494;2022-09-13T00:18:32;0.80;;;0.80;;
57615;SDS011;43816;52.054;-9.494;2022-09-13T00:18:42;0.70;;;0.70;;
57615;SDS011;43816;52.054;-9.494;2022-09-13T00:18:53;0.70;;;0.70;;
57615;SDS011;43816;52.054;-9.494;2022-09-13T00:19:04;0.70;;;0.70;;
57615;SDS011;43816;52.054;-9.494;2022-09-13T00:19:14;0.70;;;0.70;;
57615;SDS011;43816;52.054;-9.494;2022-09-13T00:19:24;0.70;;;0.70;;
57615;SDS011;43816;52.054;-9.494;2022-09-13T00:19:34;0.70;;;0.70;;
57615;SDS011;43816;52.054;-9.494;2022-09-13T00:19:45;0.70;;;0.70;;
57615;SDS011;43816;52.054;-9.494;2022-09-13T00:19:55;0.80;;;0.80;;
57615;SDS011;43816;52.054;-9.494;2022-09-13T00:20:06;0.77;;;0.77;;
57615;SDS011;43816;52.054;-9.494;2022-09-13T00:20:16;0.90;;;0.80;;
57615;SDS011;43816;52.054;-9.494;2022-09-13T00:20:27;1.00;;;0.70;;
57615;SDS011;43816;52.054;-9.494;2022-09-13T00:20:38;1.13;;;0.70;;
57615;SDS011;43816;52.054;-9.494;2022-09-13T00:20:49;0.80;;;0.80;;
57615;SDS011;43816;52.054;-9.494;2022-09-13T00:21:03;0.80;;;0.80;;
57615;SDS011;43816;52.054;-9.494;2022-09-13T00:21:18;0.80;;;0.80;;
57615;SDS011;43816;52.054;-9.494;2022-09-13T00:21:29;0.80;;;0.80;;
57615;SDS011;43816;52.054;-9.494;2022-09-13T00:21:40;0.80;;;0.80;;
57615;SDS011;43816;52.054;-9.494;2022-09-13T00:21:50;0.73;;;0.73;;
57615;SDS011;43816;52.054;-9.494;2022-09-13T00:22:00;0.67;;;0.67;;
57615;SDS011;43816;52.054;-9.494;2022-09-13T00:22:11;0.70;;;0.70;;
57615;SDS011;43816;52.054;-9.494;2022-09-13T00:22:21;0.77;;;0.77;;
57615;SDS011;43816;52.054;-9.494;2022-09-13T00:22:31;0.80;;;0.80;;
57615;SDS011;43816;52.054;-9.494;2022-09-13T00:22:41;0.80;;;0.80;;
57615;SDS011;43816;52.054;-9.494;2022-09-13T00:22:52;0.85;;;0.85;;
57615;SDS011;43816;52.054;-9.494;2022-09-13T00:23:02;1.23;;;0.80;;
57615;SDS011;43816;52.054;-9.494;2022-09-13T00:23:12;1.40;;;0.80;;
57615;SDS011;43816;52.054;-9.494;2022-09-13T00:23:23;1.50;;;0.80;;
57615;SDS011;43816;52.054;-9.494;2022-09-13T00:23:33;0.83;;;0.80;;
57615;SDS011;43816;52.054;-9.494;2022-09-13T00:23:45;0.85;;;0.75;;
57615;SDS011;43816;52.054;-9.494;2022-09-13T00:23:57;0.85;;;0.60;;
57615;SDS011;43816;52.054;-9.494;2022-09-13T00:24:07;0.90;;;0.70;;
57615;SDS011;43816;52.054;-9.494;2022-09-13T00:24:17;0.70;;;0.70;;
57615;SDS011;43816;52.054;-9.494;2022-09-13T00:24:28;0.70;;;0.70;;
57615;SDS011;43816;52.054;-9.494;2022-09-13T00:24:38;0.70;;;0.70;;
57615;SDS011;43816;52.054;-9.494;2022-09-13T00:24:48;0.70;;;0.70;;
57615;SDS011;43816;52.054;-9.494;2022-09-13T00:24:59;0.90;;;0.70;;
57615;SDS011;43816;52.054;-9.494;2022-09-13T00:25:09;0.80;;;0.70;;
57615;SDS011;43816;52.054;-9.494;2022-09-13T00:25:20;0.70;;;0.70;;
57615;SDS011;43816;52.054;-9.494;2022-09-13T00:25:30;0.73;;;0.73;;
57615;SDS011;43816;52.054;-9.494;2022-09-13T00:25:40;0.80;;;0.80;;
57615;SDS011;43816;52.054;-9.494;2022-09-13T00:25:50;0.73;;;0.73;;
57615;SDS011;43816;52.054;-9.494;2022-09-13T00:26:02;0.77;;;0.70;;
57615;SDS011;43816;52.054;-9.494;2022-09-13T00:26:21;0.90;;;0.70;;
57615;SDS011;43816;52.054;-9.494;2022-09-13T00:26:33;1.05;;;0.80;;
57615;SDS011;43816;52.054;-9.494;2022-09-13T00:26:44;1.13;;;0.83;;
57615;SDS011;43816;52.054;-9.494;2022-09-13T00:26:54;1.17;;;0.83;;
57615;SDS011;43816;52.054;-9.494;2022-09-13T00:27:04;0.77;;;0.73;;
57615;SDS011;43816;52.054;-9.494;2022-09-13T00:27:14;0.77;;;0.77;;
57615;SDS011;43816;52.054;-9.494;2022-09-13T00:27:25;0.73;;;0.73;;
57615;SDS011;43816;52.054;-9.494;2022-09-13T00:27:35;0.70;;;0.70;;
57615;SDS011;43816;52.054;-9.494;2022-09-13T00:27:46;0.77;;;0.77;;
57615;SDS011;43816;52.054;-9.494;2022-09-13T00:27:56;0.85;;;0.85;;
57615;SDS011;43816;52.054;-9.494;2022-09-13T00:28:07;0.87;;;0.87;;
57615;SDS011;43816;52.054;-9.494;2022-09-13T00:28:17;0.80;;;0.80;;
57615;SDS011;43816;52.054;-9.494;2022-09-13T00:28:27;0.70;;;0.70;;
57615;SDS011;43816;52.054;-9.494;2022-09-13T00:28:38;0.80;;;0.80;;
57615;SDS011;43816;52.054;-9.494;2022-09-13T00:28:52;0.80;;;0.80;;
57615;SDS011;43816;52.054;-9.494;2022-09-13T00:29:04;0.80;;;0.80;;
57615;SDS011;43816;52.054;-9.494;2022-09-13T00:29:14;0.80;;;0.80;;
57615;SDS011;43816;52.054;-9.494;2022-09-13T00:29:25;0.88;;;0.88;;
57615;SDS011;43816;52.054;-9.494;2022-09-13T00:29:36;0.80;;;0.80;;
57615;SDS011;43816;52.054;-9.494;2022-09-13T00:29:46;0.80;;;0.80;;
57615;SDS011;43816;52.054;-9.494;2022-09-13T00:29:57;0.80;;;0.80;;
57615;SDS011;43816;52.054;-9.494;2022-09-13T00:30:07;0.80;;;0.80;;
57615;SDS011;43816;52.054;-9.494;2022-09-13T00:30:18;1.08;;;0.90;;
57615;SDS011;43816;52.054;-9.494;2022-09-13T00:30:28;0.93;;;0.87;;
57615;SDS011;43816;52.054;-9.494;2022-09-13T00:30:39;1.00;;;0.90;;
57615;SDS011;43816;52.054;-9.494;2022-09-13T00:30:49;0.83;;;0.83;;
57615;SDS011;43816;52.054;-9.494;2022-09-13T00:31:03;1.10;;;0.80;;
57615;SDS011;43816;52.054;-9.494;2022-09-13T00:31:15;0.80;;;0.65;;
57615;SDS011;43816;52.054;-9.494;2022-09-13T00:31:26;0.82;;;0.60;;
57615;SDS011;43816;52.054;-9.494;2022-09-13T00:31:37;0.70;;;0.70;;
57615;SDS011;43816;52.054;-9.494;2022-09-13T00:31:47;0.80;;;0.80;;
57615;SDS011;43816;52.054;-9.494;2022-09-13T00:31:58;0.80;;;0.80;;
57615;SDS011;43816;52.054;-9.494;2022-09-13T00:32:08;0.80;;;0.80;;
57615;SDS011;43816;52.054;-9.494;2022-09-13T00:32:18;0.70;;;0.70;;
57615;SDS011;43816;52.054;-9.494;2022-09-13T00:32:28;0.73;;;0.73;;
57615;SDS011;43816;52.054;-9.494;2022-09-13T00:32:39;0.70;;;0.70;;
57615;SDS011;43816;52.054;-9.494;2022-09-13T00:32:49;0.70;;;0.70;;
57615;SDS011;43816;52.054;-9.494;2022-09-13T00:32:59;0.60;;;0.60;;
57615;SDS011;43816;52.054;-9.494;2022-09-13T00:33:09;0.60;;;0.60;;
57615;SDS011;43816;52.054;-9.494;2022-09-13T00:33:20;0.70;;;0.63;;
57615;SDS011;43816;52.054;-9.494;2022-09-13T00:33:30;0.80;;;0.80;;
57615;SDS011;43816;52.054;-9.494;2022-09-13T00:33:41;0.80;;;0.80;;
57615;SDS011;43816;52.054;-9.494;2022-09-13T00:33:51;0.80;;;0.80;;
57615;SDS011;43816;52.054;-9.494;2022-09-13T00:34:02;0.80;;;0.80;;
57615;SDS011;43816;52.054;-9.494;2022-09-13T00:34:12;0.80;;;0.80;;
57615;SDS011;43816;52.054;-9.494;2022-09-13T00:34:22;0.70;;;0.70;;
57615;SDS011;43816;52.054;-9.494;2022-09-13T00:34:33;0.70;;;0.70;;
57615;SDS011;43816;52.054;-9.494;2022-09-13T00:34:43;0.70;;;0.70;;
57615;SDS011;43816;52.054;-9.494;2022-09-13T00:34:53;0.73;;;0.73;;
57615;SDS011;43816;52.054;-9.494;2022-09-13T00:35:04;0.80;;;0.80;;
57615;SDS011;43816;52.054;-9.494;2022-09-13T00:35:16;0.80;;;0.80;;
57615;SDS011;43816;52.054;-9.494;2022-09-13T00:35:26;0.80;;;0.80;;
57615;SDS011;43816;52.054;-9.494;2022-09-13T00:35:36;0.70;;;0.70;;
57615;SDS011;43816;52.054;-9.494;2022-09-13T00:35:47;0.70;;;0.70;;
57615;SDS011;43816;52.054;-9.494;2022-09-13T00:35:57;0.70;;;0.70;;
57615;SDS011;43816;52.054;-9.494;2022-09-13T00:36:08;0.70;;;0.70;;
57615;SDS011;43816;52.054;-9.494;2022-09-13T00:36:20;0.68;;;0.68;;
57615;SDS011;43816;52.054;-9.494;2022-09-13T00:36:30;0.65;;;0.65;;
57615;SDS011;43816;52.054;-9.494;2022-09-13T00:36:40;0.70;;;0.70;;
57615;SDS011;43816;52.054;-9.494;2022-09-13T00:36:51;0.70;;;0.70;;
57615;SDS011;43816;52.054;-9.494;2022-09-13T00:37:01;0.80;;;0.80;;
57615;SDS011;43816;52.054;-9.494;2022-09-13T00:37:11;0.87;;;0.80;;
57615;SDS011;43816;52.054;-9.494;2022-09-13T00:37:22;0.70;;;0.70;;
57615;SDS011;43816;52.054;-9.494;2022-09-13T00:37:32;0.90;;;0.70;;
57615;SDS011;43816;52.054;-9.494;2022-09-13T00:37:42;0.90;;;0.70;;
57615;SDS011;43816;52.054;-9.494;2022-09-13T00:37:53;0.80;;;0.60;;
57615;SDS011;43816;52.054;-9.494;2022-09-13T00:38:03;0.63;;;0.63;;
57615;SDS011;43816;52.054;-9.494;2022-09-13T00:38:13;0.70;;;0.70;;
57615;SDS011;43816;52.054;-9.494;2022-09-13T00:38:23;0.77;;;0.77;;
57615;SDS011;43816;52.054;-9.494;2022-09-13T00:38:34;0.73;;;0.73;;
57615;SDS011;43816;52.054;-9.494;2022-09-13T00:38:45;0.70;;;0.70;;
57615;SDS011;43816;52.054;-9.494;2022-09-13T00:38:56;0.70;;;0.70;;
57615;SDS011;43816;52.054;-9.494;2022-09-13T00:39:06;0.80;;;0.80;;
57615;SDS011;43816;52.054;-9.494;2022-09-13T00:39:16;0.70;;;0.70;;
57615;SDS011;43816;52.054;-9.494;2022-09-13T00:39:27;0.70;;;0.70;;
57615;SDS011;43816;52.054;-9.494;2022-09-13T00:39:37;0.70;;;0.70;;
57615;SDS011;43816;52.054;-9.494;2022-09-13T00:39:47;0.70;;;0.70;;
57615;SDS011;43816;52.054;-9.494;2022-09-13T00:39:58;0.83;;;0.77;;
57615;SDS011;43816;52.054;-9.494;2022-09-13T00:40:09;0.80;;;0.70;;
57615;SDS011;43816;52.054;-9.494;2022-09-13T00:40:19;0.85;;;0.85;;
57615;SDS011;43816;52.054;-9.494;2022-09-13T00:40:29;0.80;;;0.80;;
57615;SDS011;43816;52.054;-9.494;2022-09-13T00:40:40;1.17;;;0.90;;
57615;SDS011;43816;52.054;-9.494;2022-09-13T00:40:50;1.20;;;0.90;;
57615;SDS011;43816;52.054;-9.494;2022-09-13T00:41:01;1.10;;;0.80;;
57615;SDS011;43816;52.054;-9.494;2022-09-13T00:41:14;0.70;;;0.70;;
57615;SDS011;43816;52.054;-9.494;2022-09-13T00:41:25;0.70;;;0.70;;
57615;SDS011;43816;52.054;-9.494;2022-09-13T00:41:36;0.70;;;0.70;;
57615;SDS011;43816;52.054;-9.494;2022-09-13T00:41:47;0.70;;;0.70;;
57615;SDS011;43816;52.054;-9.494;2022-09-13T00:41:57;0.70;;;0.70;;
57615;SDS011;43816;52.054;-9.494;2022-09-13T00:42:09;0.70;;;0.70;;
57615;SDS011;43816;52.054;-9.494;2022-09-13T00:42:24;0.65;;;0.65;;
57615;SDS011;43816;52.054;-9.494;2022-09-13T00:42:36;0.95;;;0.95;;
57615;SDS011;43816;52.054;-9.494;2022-09-13T00:42:47;1.00;;;1.00;;
57615;SDS011;43816;52.054;-9.494;2022-09-13T00:42:57;0.87;;;0.87;;
57615;SDS011;43816;52.054;-9.494;2022-09-13T00:43:18;0.70;;;0.67;;
57615;SDS011;43816;52.054;-9.494;2022-09-13T00:43:40;1.00;;;0.90;;
57615;SDS011;43816;52.054;-9.494;2022-09-13T00:43:57;0.80;;;0.80;;
57615;SDS011;43816;52.054;-9.494;2022-09-13T00:45:07;1.10;;;0.80;;
57615;SDS011;43816;52.054;-9.494;2022-09-13T00:45:24;0.75;;;0.75;;
57615;SDS011;43816;52.054;-9.494;2022-09-13T00:45:35;0.70;;;0.70;;
57615;SDS011;43816;52.054;-9.494;2022-09-13T00:45:45;0.70;;;0.70;;
57615;SDS011;43816;52.054;-9.494;2022-09-13T00:45:57;0.80;;;0.80;;
57615;SDS011;43816;52.054;-9.494;2022-09-13T00:46:07;0.90;;;0.90;;
57615;SDS011;43816;52.054;-9.494;2022-09-13T00:46:45;0.80;;;0.80;;
57615;SDS011;43816;52.054;-9.494;2022-09-13T00:46:59;0.90;;;0.90;;
57615;SDS011;43816;52.054;-9.494;2022-09-13T00:47:10;0.90;;;0.90;;
57615;SDS011;43816;52.054;-9.494;2022-09-13T00:47:25;0.80;;;0.80;;
57615;SDS011;43816;52.054;-9.494;2022-09-13T00:48:11;0.90;;;0.90;;
57615;SDS011;43816;52.054;-9.494;2022-09-13T00:48:28;0.80;;;0.80;;
57615;SDS011;43816;52.054;-9.494;2022-09-13T00:48:41;0.70;;;0.70;;
57615;SDS011;43816;52.054;-9.494;2022-09-13T00:48:56;0.70;;;0.70;;
57615;SDS011;43816;52.054;-9.494;2022-09-13T00:49:29;0.80;;;0.80;;
57615;SDS011;43816;52.054;-9.494;2022-09-13T00:49:45;0.85;;;0.85;;
57615;SDS011;43816;52.054;-9.494;2022-09-13T00:50:04;0.77;;;0.77;;
57615;SDS011;43816;52.054;-9.494;2022-09-13T00:50:41;0.82;;;0.82;;
57615;SDS011;43816;52.054;-9.494;2022-09-13T00:50:56;0.80;;;0.80;;
57615;SDS011;43816;52.054;-9.494;2022-09-13T00:51:07;0.87;;;0.80;;
57615;SDS011;43816;52.054;-9.494;2022-09-13T00:51:19;0.95;;;0.80;;
57615;SDS011;43816;52.054;-9.494;2022-09-13T00:51:29;0.90;;;0.80;;
57615;SDS011;43816;52.054;-9.494;2022-09-13T00:51:41;0.95;;;0.80;;
57615;SDS011;43816;52.054;-9.494;2022-09-13T00:51:55;0.98;;;0.80;;
57615;SDS011;43816;52.054;-9.494;2022-09-13T00:52:09;1.05;;;0.80;;
57615;SDS011;43816;52.054;-9.494;2022-09-13T00:52:24;0.80;;;0.80;;
57615;SDS011;43816;52.054;-9.494;2022-09-13T00:52:38;0.70;;;0.70;;
57615;SDS011;43816;52.054;-9.494;2022-09-13T00:52:54;0.70;;;0.70;;
57615;SDS011;43816;52.054;-9.494;2022-09-13T00:53:24;0.80;;;0.80;;
57615;SDS011;43816;52.054;-9.494;2022-09-13T00:53:40;0.73;;;0.73;;
57615;SDS011;43816;52.054;-9.494;2022-09-13T00:53:55;0.73;;;0.73;;
57615;SDS011;43816;52.054;-9.494;2022-09-13T00:54:08;0.98;;;0.80;;
57615;SDS011;43816;52.054;-9.494;2022-09-13T00:54:19;0.95;;;0.80;;
57615;SDS011;43816;52.054;-9.494;2022-09-13T00:54:35;0.65;;;0.65;;
57615;SDS011;43816;52.054;-9.494;2022-09-13T00:54:58;0.90;;;0.80;;
57615;SDS011;43816;52.054;-9.494;2022-09-13T00:55:15;0.77;;;0.77;;
57615;SDS011;43816;52.054;-9.494;2022-09-13T00:55:34;1.15;;;1.02;;
57615;SDS011;43816;52.054;-9.494;2022-09-13T00:55:52;1.33;;;0.85;;
57615;SDS011;43816;52.054;-9.494;2022-09-13T00:56:12;1.02;;;0.70;;
57615;SDS011;43816;52.054;-9.494;2022-09-13T00:56:29;1.10;;;0.80;;
57615;SDS011;43816;52.054;-9.494;2022-09-13T00:56:45;0.73;;;0.73;;
57615;SDS011;43816;52.054;-9.494;2022-09-13T00:57:01;0.70;;;0.70;;
57615;SDS011;43816;52.054;-9.494;2022-09-13T00:57:13;0.70;;;0.70;;
57615;SDS011;43816;52.054;-9.494;2022-09-13T00:57:27;0.75;;;0.70;;
57615;SDS011;43816;52.054;-9.494;2022-09-13T00:57:40;0.75;;;0.75;;
57615;SDS011;43816;52.054;-9.494;2022-09-13T00:57:51;0.80;;;0.80;;
57615;SDS011;43816;52.054;-9.494;2022-09-13T00:58:06;0.95;;;0.85;;
57615;SDS011;43816;52.054;-9.494;2022-09-13T00:58:34;0.85;;;0.80;;
57615;SDS011;43816;52.054;-9.494;2022-09-13T00:58:49;0.80;;;0.80;;
57615;SDS011;43816;52.054;-9.494;2022-09-13T00:59:05;1.00;;;0.80;;
57615;SDS011;43816;52.054;-9.494;2022-09-13T00:59:20;0.80;;;0.70;;
57615;SDS011;43816;52.054;-9.494;2022-09-13T00:59:37;1.05;;;0.77;;
57615;SDS011;43816;52.054;-9.494;2022-09-13T01:00:08;0.90;;;0.90;;
57615;SDS011;43816;52.054;-9.494;2022-09-13T01:00:21;0.80;;;0.80;;
57615;SDS011;43816;52.054;-9.494;2022-09-13T01:00:31;0.70;;;0.70;;
57615;SDS011;43816;52.054;-9.494;2022-09-13T01:00:42;0.70;;;0.70;;
57615;SDS011;43816;52.054;-9.494;2022-09-13T01:00:54;0.70;;;0.70;;
57615;SDS011;43816;52.054;-9.494;2022-09-13T01:01:07;0.70;;;0.70;;
57615;SDS011;43816;52.054;-9.494;2022-09-13T01:01:21;0.80;;;0.75;;
57615;SDS011;43816;52.054;-9.494;2022-09-13T01:01:43;0.80;;;0.80;;
57615;SDS011;43816;52.054;-9.494;2022-09-13T01:01:58;0.70;;;0.70;;
57615;SDS011;43816;52.054;-9.494;2022-09-13T01:02:10;0.70;;;0.70;;
57615;SDS011;43816;52.054;-9.494;2022-09-13T01:02:21;0.70;;;0.70;;
57615;SDS011;43816;52.054;-9.494;2022-09-13T01:02:31;0.85;;;0.77;;
57615;SDS011;43816;52.054;-9.494;2022-09-13T01:02:43;0.90;;;0.80;;
57615;SDS011;43816;52.054;-9.494;2022-09-13T01:03:00;0.88;;;0.88;;
57615;SDS011;43816;52.054;-9.494;2022-09-13T01:03:13;0.80;;;0.80;;
57615;SDS011;43816;52.054;-9.494;2022-09-13T01:03:27;0.75;;;0.75;;
57615;SDS011;43816;52.054;-9.494;2022-09-13T01:03:40;0.70;;;0.70;;
57615;SDS011;43816;52.054;-9.494;2022-09-13T01:03:54;0.70;;;0.70;;
57615;SDS011;43816;52.054;-9.494;2022-09-13T01:04:04;0.70;;;0.70;;
57615;SDS011;43816;52.054;-9.494;2022-09-13T01:04:16;0.75;;;0.75;;
57615;SDS011;43816;52.054;-9.494;2022-09-13T01:04:30;0.70;;;0.70;;
57615;SDS011;43816;52.054;-9.494;2022-09-13T01:04:44;0.75;;;0.75;;
57615;SDS011;43816;52.054;-9.494;2022-09-13T01:04:54;0.80;;;0.80;;
57615;SDS011;43816;52.054;-9.494;2022-09-13T01:05:05;0.80;;;0.80;;
57615;SDS011;43816;52.054;-9.494;2022-09-13T01:05:17;0.80;;;0.80;;
57615;SDS011;43816;52.054;-9.494;2022-09-13T01:05:35;0.80;;;0.80;;
57615;SDS011;43816;52.054;-9.494;2022-09-13T01:05:51;0.80;;;0.80;;
57615;SDS011;43816;52.054;-9.494;2022-09-13T01:06:07;0.80;;;0.80;;
57615;SDS011;43816;52.054;-9.494;2022-09-13T01:06:21;0.80;;;0.80;;
57615;SDS011;43816;52.054;-9.494;2022-09-13T01:06:37;0.60;;;0.60;;
57615;SDS011;43816;52.054;-9.494;2022-09-13T01:06:50;0.70;;;0.70;;
57615;SDS011;43816;52.054;-9.494;2022-09-13T01:07:06;0.80;;;0.80;;
57615;SDS011;43816;52.054;-9.494;2022-09-13T01:07:18;0.75;;;0.75;;
57615;SDS011;43816;52.054;-9.494;2022-09-13T01:07:29;0.70;;;0.70;;
57615;SDS011;43816;52.054;-9.494;2022-09-13T01:07:39;0.70;;;0.70;;
57615;SDS011;43816;52.054;-9.494;2022-09-13T01:07:50;0.77;;;0.77;;
57615;SDS011;43816;52.054;-9.494;2022-09-13T01:08:01;0.80;;;0.80;;
57615;SDS011;43816;52.054;-9.494;2022-09-13T01:08:12;0.80;;;0.80;;
57615;SDS011;43816;52.054;-9.494;2022-09-13T01:08:24;0.90;;;0.90;;
57615;SDS011;43816;52.054;-9.494;2022-09-13T01:08:36;0.93;;;0.93;;
57615;SDS011;43816;52.054;-9.494;2022-09-13T01:08:49;1.00;;;0.90;;
57615;SDS011;43816;52.054;-9.494;2022-09-13T01:09:02;0.80;;;0.80;;
57615;SDS011;43816;52.054;-9.494;2022-09-13T01:09:14;0.80;;;0.80;;
57615;SDS011;43816;52.054;-9.494;2022-09-13T01:09:24;0.80;;;0.80;;
57615;SDS011;43816;52.054;-9.494;2022-09-13T01:09:36;0.80;;;0.80;;
57615;SDS011;43816;52.054;-9.494;2022-09-13T01:09:49;0.80;;;0.80;;
57615;SDS011;43816;52.054;-9.494;2022-09-13T01:10:02;0.80;;;0.80;;
57615;SDS011;43816;52.054;-9.494;2022-09-13T01:10:14;0.80;;;0.80;;
57615;SDS011;43816;52.054;-9.494;2022-09-13T01:10:26;0.82;;;0.82;;
57615;SDS011;43816;52.054;-9.494;2022-09-13T01:10:37;1.00;;;0.90;;
57615;SDS011;43816;52.054;-9.494;2022-09-13T01:10:48;0.88;;;0.88;;
57615;SDS011;43816;52.054;-9.494;2022-09-13T01:11:00;0.88;;;0.88;;
57615;SDS011;43816;52.054;-9.494;2022-09-13T01:11:15;0.80;;;0.80;;
57615;SDS011;43816;52.054;-9.494;2022-09-13T01:11:57;2.00;;;1.05;;
57615;SDS011;43816;52.054;-9.494;2022-09-13T01:12:16;1.30;;;1.20;;
57615;SDS011;43816;52.054;-9.494;2022-09-13T01:12:51;1.23;;;1.13;;
57615;SDS011;43816;52.054;-9.494;2022-09-13T01:13:09;1.38;;;1.10;;
57615;SDS011;43816;52.054;-9.494;2022-09-13T01:13:41;0.80;;;0.80;;
57615;SDS011;43816;52.054;-9.494;2022-09-13T01:13:52;0.80;;;0.80;;
57615;SDS011;43816;52.054;-9.494;2022-09-13T01:14:04;0.88;;;0.80;;
57615;SDS011;43816;52.054;-9.494;2022-09-13T01:14:16;0.88;;;0.82;;
57615;SDS011;43816;52.054;-9.494;2022-09-13T01:14:31;1.08;;;1.00;;
57615;SDS011;43816;52.054;-9.494;2022-09-13T01:14:42;1.00;;;0.95;;